This is the latest recevied weather packets stored in our database for station/object K3SV. If no packets are shown the sender has not sent any weather packets the latest 10 day(s).
| Time | Temp. | Humidity | Pressure | Rain* | Wind** | Luminosity | Snow |
|---|---|---|---|---|---|---|---|
| 1777750554 | 20° C | 96% | 1011.7 hPa | 6.1 mm | - | 9 W/m² | - |
| 1777750250 | 20° C | 96% | 1011.8 hPa | 14.99 mm | - | 11 W/m² | - |
| 1777749946 | 20° C | 95% | 1011.7 hPa | 16.76 mm | - | 11 W/m² | - |
| 1777749644 | 20.56° C | 93% | 1012 hPa | 4.83 mm | - | 11 W/m² | - |
| 1777749340 | 20.56° C | 92% | 1012.3 hPa | 0 mm | - | 13 W/m² | - |
| 1777749032 | 21.11° C | 90% | 1012 hPa | 3.05 mm | - | 13 W/m² | - |
| 1777748729 | 22.22° C | 87% | 1012 hPa | 4.83 mm | - | 12 W/m² | - |
| 1777748421 | 25° C | 79% | 1011.8 hPa | 1.78 mm | - | 8 W/m² | - |
| 1777748116 | 27.78° C | 78% | 1011.2 hPa | 0 mm | - | 14 W/m² | - |
| 1777747813 | 27.78° C | 77% | 1011.2 hPa | 0 mm | - | 58 W/m² | - |
| 1777747508 | 27.78° C | 77% | 1011.2 hPa | 0 mm | - | 80 W/m² | - |
| 1777747205 | 27.78° C | 77% | 1010.9 hPa | 0 mm | - | 65 W/m² | - |
| 1777746901 | 27.78° C | 76% | 1010.9 hPa | 0 mm | - | 84 W/m² | - |
| 1777746596 | 27.78° C | 76% | 1011 hPa | 0 mm | - | 73 W/m² | - |
| 1777746292 | 28.33° C | 75% | 1010.9 hPa | 0 mm | - | 85 W/m² | - |
| 1777745988 | 28.33° C | 76% | 1011.3 hPa | 0 mm | - | 153 W/m² | - |
| 1777745686 | 28.33° C | 77% | 1011.1 hPa | 0 mm | - | 131 W/m² | - |
| 1777745385 | 28.89° C | 75% | 1011.1 hPa | 0 mm | - | 69 W/m² | - |
| 1777745082 | 28.89° C | 76% | 1011.1 hPa | 0 mm | - | 100 W/m² | - |
| 1777744777 | 28.89° C | 76% | 1011.2 hPa | 0 mm | - | 168 W/m² | - |
| 1777744471 | 28.89° C | 75% | 1011 hPa | 0 mm | - | 225 W/m² | - |
| 1777744168 | 28.89° C | 75% | 1011.1 hPa | 0 mm | - | 206 W/m² | - |
| 1777743865 | 28.33° C | 76% | 1010.9 hPa | 0 mm | - | 220 W/m² | - |
| 1777743562 | 28.33° C | 76% | 1011.1 hPa | 0 mm | - | 86 W/m² | - |
| 1777743259 | 28.33° C | 76% | 1011.2 hPa | 0 mm | - | 131 W/m² | - |
* Rain latest hour (hover to see other rain measurements)
** Current wind speed in m/s (hover to see current wind gust speed)